createdAt,value
2018-08-06T00:00:31.668Z,101789.64
2018-08-06T00:02:58.594Z,101796.27
2018-08-06T00:05:25.523Z,101792.02
2018-08-06T00:07:52.488Z,101797.91
2018-08-06T00:10:23.002Z,101807.40
2018-08-06T00:12:50.000Z,101805.47
2018-08-06T00:15:16.981Z,101810.95
2018-08-06T00:17:43.946Z,101803.45
2018-08-06T00:20:12.068Z,101804.48
2018-08-06T00:22:39.504Z,101803.45
2018-08-06T00:25:07.794Z,101793.96
2018-08-06T00:27:34.710Z,101797.86
2018-08-06T00:30:01.785Z,101792.34
2018-08-06T00:32:28.685Z,101799.34
2018-08-06T00:34:55.702Z,101797.88
2018-08-06T00:37:22.777Z,101799.84
2018-08-06T00:39:49.685Z,101796.68
2018-08-06T00:42:16.640Z,101796.55
2018-08-06T00:44:43.555Z,101802.77
2018-08-06T00:47:10.560Z,101799.74
2018-08-06T00:49:37.564Z,101798.41
2018-08-06T00:52:04.625Z,101798.55
2018-08-06T00:54:31.524Z,101795.20
2018-08-06T00:56:58.563Z,101800.28
2018-08-06T00:59:25.628Z,101797.56
2018-08-06T01:01:52.944Z,101797.61
2018-08-06T01:04:19.865Z,101799.55
2018-08-06T01:06:46.839Z,101800.73
2018-08-06T01:09:13.775Z,101797.91
2018-08-06T01:11:40.818Z,101793.78
2018-08-06T01:14:07.804Z,101796.64
2018-08-06T01:16:34.766Z,101793.62
2018-08-06T01:19:01.717Z,101785.13
2018-08-06T01:21:28.732Z,101794.16
2018-08-06T01:23:55.663Z,101788.35
2018-08-06T01:26:22.591Z,101794.62
2018-08-06T01:28:49.590Z,101790.72
2018-08-06T01:31:16.692Z,101783.16
2018-08-06T01:33:43.615Z,101785.87
2018-08-06T01:36:10.544Z,101782.86
2018-08-06T01:38:37.493Z,101790.59
2018-08-06T01:41:04.430Z,101786.64
2018-08-06T01:43:31.366Z,101785.13
2018-08-06T01:45:58.271Z,101786.27
2018-08-06T01:48:25.216Z,101780.59
2018-08-06T01:50:52.157Z,101784.06
2018-08-06T01:53:19.108Z,101783.93
2018-08-06T01:55:45.990Z,101780.23
2018-08-06T01:58:12.920Z,101778.55
2018-08-06T02:00:41.769Z,101774.95
2018-08-06T02:03:09.681Z,101769.41
2018-08-06T02:05:37.360Z,101771.19
2018-08-06T02:08:05.211Z,101771.00
2018-08-06T02:10:32.093Z,101770.02
2018-08-06T02:12:59.016Z,101771.84
2018-08-06T02:15:26.453Z,101765.14
2018-08-06T02:17:54.336Z,101767.42
2018-08-06T02:20:22.095Z,101766.70
2018-08-06T02:22:50.100Z,101770.74
2018-08-06T02:25:18.396Z,101762.14
2018-08-06T02:27:45.391Z,101761.82
2018-08-06T02:30:14.738Z,101764.98
2018-08-06T02:32:42.787Z,101759.59
2018-08-06T02:35:12.803Z,101759.69
2018-08-06T02:37:41.237Z,101757.20
2018-08-06T02:40:11.269Z,101754.53
2018-08-06T02:42:39.280Z,101755.03
2018-08-06T02:45:09.196Z,101751.56
2018-08-06T02:47:38.092Z,101750.94
2018-08-06T02:50:08.096Z,101754.89
2018-08-06T02:52:36.524Z,101746.59
2018-08-06T02:55:05.368Z,101748.73
2018-08-06T02:57:33.556Z,101698.04
2018-08-06T03:00:01.964Z,101743.04
2018-08-06T03:02:30.805Z,101739.14
2018-08-06T03:04:58.123Z,101741.67
2018-08-06T03:07:26.143Z,101744.02
2018-08-06T03:09:53.121Z,101742.03
2018-08-06T03:12:20.037Z,101742.64
2018-08-06T03:14:47.053Z,101737.31
2018-08-06T03:17:13.969Z,101735.23
2018-08-06T03:19:40.908Z,101740.64
2018-08-06T03:22:07.831Z,101740.55
2018-08-06T03:24:34.756Z,101730.44
2018-08-06T03:27:01.687Z,101732.16
2018-08-06T03:29:28.625Z,101734.11
2018-08-06T03:31:55.585Z,101729.84
2018-08-06T03:34:22.521Z,101730.83
2018-08-06T03:36:49.447Z,101731.44
2018-08-06T03:39:16.354Z,101735.43
2018-08-06T03:41:43.292Z,101727.76
2018-08-06T03:44:10.263Z,101724.25
2018-08-06T03:46:37.180Z,101723.86
2018-08-06T03:49:04.152Z,101719.06
2018-08-06T03:51:31.111Z,101726.56
2018-08-06T03:53:58.064Z,101726.65
2018-08-06T03:56:25.060Z,101724.34
2018-08-06T03:58:52.610Z,101718.08
2018-08-06T04:01:19.580Z,101713.56
2018-08-06T04:03:46.680Z,101714.05
2018-08-06T04:06:13.652Z,101714.45
2018-08-06T04:08:40.659Z,101711.78
2018-08-06T04:11:07.593Z,101712.73
2018-08-06T04:13:34.635Z,101711.09
2018-08-06T04:16:01.549Z,101711.75
2018-08-06T04:18:28.476Z,101710.07
2018-08-06T04:20:55.415Z,101706.91
2018-08-06T04:23:22.386Z,101711.40
2018-08-06T04:25:49.364Z,101707.89
2018-08-06T04:28:16.297Z,101698.34
2018-08-06T04:30:43.224Z,101709.35
2018-08-06T04:33:10.193Z,101709.31
2018-08-06T04:35:37.169Z,101707.39
2018-08-06T04:38:04.224Z,101715.29
2018-08-06T04:40:31.192Z,101720.17
2018-08-06T04:42:58.131Z,101723.36
2018-08-06T04:45:25.110Z,101719.62
2018-08-06T04:47:52.042Z,101719.83
2018-08-06T04:50:18.989Z,101722.06
2018-08-06T04:52:46.232Z,101717.09
2018-08-06T04:55:14.060Z,101718.55
2018-08-06T04:57:41.041Z,101717.22
2018-08-06T05:00:10.377Z,101714.53
2018-08-06T05:02:37.332Z,101720.02
2018-08-06T05:05:04.784Z,101725.14
2018-08-06T05:07:31.718Z,101721.45
2018-08-06T05:09:58.644Z,101716.80
2018-08-06T05:12:25.568Z,101721.82
2018-08-06T05:14:52.480Z,101701.41
2018-08-06T05:17:19.402Z,101720.22
2018-08-06T05:19:46.308Z,101718.21
2018-08-06T05:22:13.237Z,101720.88
2018-08-06T05:24:40.241Z,101724.11
2018-08-06T05:27:07.113Z,101721.66
2018-08-06T05:29:34.020Z,101715.94
2018-08-06T05:32:00.945Z,101719.13
2018-08-06T05:34:27.900Z,101722.63
2018-08-06T05:36:54.824Z,101714.42
2018-08-06T05:39:21.748Z,101709.89
2018-08-06T05:41:48.706Z,101714.42
2018-08-06T05:44:15.636Z,101702.09
2018-08-06T05:46:42.570Z,101711.57
2018-08-06T05:49:09.514Z,101716.80
2018-08-06T05:51:36.442Z,101713.02
2018-08-06T05:54:03.392Z,101716.52
2018-08-06T05:56:30.325Z,101710.47
2018-08-06T05:58:57.213Z,101719.00
2018-08-06T06:01:24.168Z,101720.77
2018-08-06T06:03:51.098Z,101710.27
2018-08-06T06:06:18.036Z,101721.91
2018-08-06T06:08:44.964Z,101720.19
2018-08-06T06:11:11.920Z,101712.39
2018-08-06T06:13:38.852Z,101710.06
2018-08-06T06:16:06.771Z,101713.84
2018-08-06T06:18:33.720Z,101711.80
2018-08-06T06:21:00.673Z,101717.58
2018-08-06T06:23:27.613Z,101705.94
2018-08-06T06:25:54.554Z,101710.97
2018-08-06T06:28:21.480Z,101712.30
2018-08-06T06:30:48.408Z,101706.32
2018-08-06T06:33:15.308Z,101710.30
2018-08-06T06:35:42.227Z,101698.19
2018-08-06T06:38:09.148Z,101696.62
2018-08-06T06:40:36.125Z,101696.66
2018-08-06T06:43:03.068Z,101699.75
2018-08-06T06:45:29.997Z,101695.56
2018-08-06T06:47:56.912Z,101699.53
2018-08-06T06:50:23.848Z,101694.31
2018-08-06T06:52:50.759Z,101694.20
2018-08-06T06:55:17.672Z,101700.45
2018-08-06T06:57:44.600Z,101692.98
2018-08-06T07:00:11.689Z,101695.48
2018-08-06T07:02:39.156Z,101690.08
2018-08-06T07:05:06.424Z,101695.27
2018-08-06T07:07:33.635Z,101688.20
2018-08-06T07:10:00.567Z,101685.93
2018-08-06T07:12:27.522Z,101686.23
2018-08-06T07:14:54.440Z,101683.19
2018-08-06T07:17:21.357Z,101683.06
2018-08-06T07:19:48.267Z,101690.58
2018-08-06T07:22:15.208Z,101680.89
2018-08-06T07:24:42.136Z,101679.81
2018-08-06T07:27:09.063Z,101680.68
2018-08-06T07:29:35.972Z,101680.08
2018-08-06T07:32:02.917Z,101678.81
2018-08-06T07:34:29.832Z,101681.69
2018-08-06T07:36:56.773Z,101681.53
2018-08-06T07:39:23.734Z,101684.84
2018-08-06T07:41:50.645Z,101683.23
2018-08-06T07:44:17.821Z,101682.73
2018-08-06T07:46:44.759Z,101678.64
2018-08-06T07:49:11.681Z,101676.80
2018-08-06T07:51:38.604Z,101684.13
2018-08-06T07:54:05.597Z,101679.83
2018-08-06T07:56:32.526Z,101678.38
2018-08-06T07:58:59.481Z,101678.13
2018-08-06T08:01:26.420Z,101676.74
2018-08-06T08:03:53.362Z,101670.95
2018-08-06T08:06:21.123Z,101675.59
2018-08-06T08:08:48.127Z,101669.72
2018-08-06T08:11:15.104Z,101661.69
2018-08-06T08:13:42.052Z,101650.77
2018-08-06T08:16:08.984Z,101658.81
2018-08-06T08:18:35.920Z,101656.22
2018-08-06T08:21:02.842Z,101653.83
2018-08-06T08:23:29.769Z,101649.22
2018-08-06T08:25:56.709Z,101644.95
2018-08-06T08:28:23.632Z,101646.97
2018-08-06T08:30:50.588Z,101637.31
2018-08-06T08:33:17.600Z,101642.53
2018-08-06T08:35:44.546Z,101639.63
2018-08-06T08:38:11.464Z,101643.00
2018-08-06T08:40:38.504Z,101631.62
2018-08-06T08:43:05.427Z,101633.27
2018-08-06T08:45:32.380Z,101630.45
2018-08-06T08:47:59.308Z,101625.38
2018-08-06T08:50:26.240Z,101625.18
2018-08-06T08:52:53.164Z,101628.94
2018-08-06T08:55:20.327Z,101629.70
2018-08-06T08:57:47.251Z,101621.59
2018-08-06T09:03:00.893Z,101620.88
2018-08-06T09:05:27.836Z,101618.77
2018-08-06T09:07:54.782Z,101615.73
2018-08-06T09:10:21.739Z,101618.61
2018-08-06T09:12:48.676Z,101617.92
2018-08-06T09:15:20.968Z,101613.45
2018-08-06T09:17:47.949Z,101607.36
2018-08-06T09:20:14.894Z,101605.73
2018-08-06T09:22:42.740Z,101608.78
2018-08-06T09:25:10.601Z,101603.63
2018-08-06T09:27:38.680Z,101603.09
2018-08-06T09:30:08.385Z,101604.70
2018-08-06T09:32:35.308Z,101600.52
2018-08-06T09:35:02.232Z,101593.45
2018-08-06T09:37:29.173Z,101594.44
2018-08-06T09:39:58.025Z,101592.73
2018-08-06T09:42:25.471Z,101593.89
2018-08-06T09:44:52.645Z,101587.30
2018-08-06T09:47:19.608Z,101580.30
2018-08-06T09:49:46.664Z,101585.87
2018-08-06T09:52:13.723Z,101587.20
2018-08-06T09:54:40.867Z,101586.58
2018-08-06T09:57:07.861Z,101582.25
2018-08-06T09:59:36.560Z,101576.83
2018-08-06T10:02:07.338Z,101571.51
2018-08-06T10:04:35.429Z,101569.17
2018-08-06T10:07:03.912Z,101569.33
2018-08-06T10:09:32.431Z,101564.50
2018-08-06T10:12:01.805Z,101568.16
2018-08-06T10:14:29.743Z,101562.58
2018-08-06T10:16:57.859Z,101561.78
2018-08-06T10:19:27.003Z,101557.34
2018-08-06T10:21:55.027Z,101555.11
2018-08-06T10:24:22.007Z,101549.80
2018-08-06T10:26:49.040Z,101538.62
2018-08-06T10:29:15.958Z,101536.58
2018-08-06T10:31:44.237Z,101541.94
2018-08-06T10:34:11.173Z,101537.89
2018-08-06T10:36:38.110Z,101534.52
2018-08-06T10:39:07.984Z,101541.27
2018-08-06T10:41:34.897Z,101533.89
2018-08-06T10:44:01.879Z,101528.37
2018-08-06T10:46:29.562Z,101521.23
2018-08-06T10:48:56.532Z,101518.19
2018-08-06T10:51:23.483Z,101520.55
2018-08-06T10:53:50.736Z,101519.43
2018-08-06T10:56:17.624Z,101519.66
2018-08-06T10:58:45.460Z,101515.86
2018-08-06T11:01:12.989Z,101510.66
2018-08-06T11:03:40.142Z,101508.57
2018-08-06T11:06:07.077Z,101500.63
2018-08-06T11:08:35.708Z,101498.58
2018-08-06T11:11:02.695Z,101498.48
2018-08-06T11:13:30.038Z,101499.24
2018-08-06T11:15:57.157Z,101501.69
2018-08-06T11:18:24.141Z,101495.89
2018-08-06T11:20:51.104Z,101495.70
2018-08-06T11:23:18.828Z,101485.88
2018-08-06T11:25:45.740Z,101486.22
2018-08-06T11:28:12.868Z,101471.08
2018-08-06T11:30:40.005Z,101469.89
2018-08-06T11:33:06.985Z,101469.41
2018-08-06T11:35:35.680Z,101460.34
2018-08-06T11:38:03.949Z,101455.77
2018-08-06T11:40:34.033Z,101451.05
2018-08-06T11:43:02.562Z,101454.25
2018-08-06T11:45:29.476Z,101448.52
2018-08-06T11:47:57.461Z,101444.48
2018-08-06T11:50:25.677Z,101450.66
2018-08-06T11:52:53.465Z,101445.75
2018-08-06T11:55:20.441Z,101437.56
2018-08-06T11:57:49.126Z,101444.02
2018-08-06T12:00:21.633Z,101435.33
2018-08-06T12:02:50.499Z,101424.66
2018-08-06T12:05:17.548Z,101431.08
2018-08-06T12:07:44.477Z,101426.21
2018-08-06T12:10:13.274Z,101419.33
2018-08-06T12:12:40.420Z,101415.52
2018-08-06T12:15:08.245Z,101422.27
2018-08-06T12:17:35.230Z,101412.46
2018-08-06T12:20:03.712Z,101417.33
2018-08-06T12:22:30.636Z,101419.09
2018-08-06T12:24:57.580Z,101410.09
2018-08-06T12:27:24.617Z,101413.88
2018-08-06T12:29:51.571Z,101392.73
2018-08-06T12:32:19.891Z,101395.33
2018-08-06T12:34:46.900Z,101391.62
2018-08-06T12:37:13.824Z,101399.91
2018-08-06T12:39:40.757Z,101403.76
2018-08-06T12:42:07.696Z,101395.11
2018-08-06T12:44:36.963Z,101394.24
2018-08-06T12:47:04.944Z,101385.97
2018-08-06T12:49:33.240Z,101384.34
2018-08-06T12:52:00.221Z,101382.27
2018-08-06T12:54:27.175Z,101377.37
2018-08-06T12:56:55.174Z,101373.92
2018-08-06T12:59:23.457Z,101379.08
2018-08-06T13:01:50.427Z,101369.11
2018-08-06T13:04:17.368Z,101371.41
2018-08-06T13:06:44.289Z,101359.00
2018-08-06T13:09:11.231Z,101360.92
2018-08-06T13:11:39.074Z,101351.02
2018-08-06T13:14:06.595Z,101353.50
2018-08-06T13:16:33.541Z,101351.38
2018-08-06T13:19:00.481Z,101355.58
2018-08-06T13:21:27.649Z,101355.00
2018-08-06T13:23:54.563Z,101356.53
2018-08-06T13:26:21.516Z,101345.37
2018-08-06T13:28:48.490Z,101351.24
2018-08-06T13:31:15.436Z,101340.71
2018-08-06T13:33:42.391Z,101348.50
2018-08-06T13:36:09.340Z,101339.77
2018-08-06T13:38:36.285Z,101341.78
2018-08-06T13:41:03.678Z,101338.39
2018-08-06T13:43:30.628Z,101332.20
2018-08-06T13:48:18.042Z,101329.23
2018-08-06T13:50:44.956Z,101332.75
2018-08-06T13:53:11.939Z,101331.29
2018-08-06T13:55:38.927Z,101328.84
2018-08-06T13:58:05.899Z,101322.36
2018-08-06T14:00:32.889Z,101321.72
2018-08-06T14:02:59.799Z,101318.34
2018-08-06T14:05:26.754Z,101312.92
2018-08-06T14:07:53.837Z,101320.37
2018-08-06T14:10:20.768Z,101313.42
2018-08-06T14:12:47.731Z,101312.98
2018-08-06T14:15:15.981Z,101303.87
2018-08-06T14:17:44.747Z,101297.56
2018-08-06T14:20:13.359Z,101301.41
2018-08-06T14:22:40.317Z,101303.94
2018-08-06T14:25:08.480Z,101293.91
2018-08-06T14:27:35.432Z,101298.62
2018-08-06T14:30:02.838Z,101296.20
2018-08-06T14:32:29.788Z,101290.77
2018-08-06T14:34:56.738Z,101283.44
2018-08-06T14:37:23.649Z,101284.61
2018-08-06T14:39:51.201Z,101289.98
2018-08-06T14:42:18.128Z,101289.19
2018-08-06T14:44:45.062Z,101290.41
2018-08-06T14:47:11.968Z,101286.36
2018-08-06T14:49:38.976Z,101286.17
2018-08-06T14:52:06.024Z,101277.73
2018-08-06T14:54:32.886Z,101266.80
2018-08-06T14:56:59.820Z,101266.89
2018-08-06T14:59:26.773Z,101271.86
2018-08-06T15:01:53.649Z,101268.55
2018-08-06T15:04:20.580Z,101264.44
2018-08-06T15:06:47.505Z,101263.23
2018-08-06T15:09:14.734Z,101261.13
2018-08-06T15:11:42.096Z,101267.58
2018-08-06T15:14:10.385Z,101261.04
2018-08-06T15:16:39.537Z,101254.64
2018-08-06T15:19:07.951Z,101259.81
2018-08-06T15:21:37.125Z,101258.03
2018-08-06T15:24:08.577Z,101255.59
2018-08-06T15:26:35.501Z,101252.41
2018-08-06T15:29:02.994Z,101244.56
2018-08-06T15:31:31.348Z,101243.27
2018-08-06T15:33:58.234Z,101233.13
2018-08-06T15:36:25.174Z,101242.47
2018-08-06T15:38:52.135Z,101227.83
2018-08-06T15:41:19.109Z,101233.28
2018-08-06T15:43:46.036Z,101225.66
2018-08-06T15:46:12.980Z,101226.70
2018-08-06T15:48:39.890Z,101231.47
2018-08-06T15:51:06.856Z,101227.33
2018-08-06T15:53:33.813Z,101233.30
2018-08-06T15:56:00.730Z,101221.16
2018-08-06T15:58:27.678Z,101225.66
2018-08-06T16:00:54.640Z,101219.31
2018-08-06T16:03:21.590Z,101214.05
2018-08-06T16:05:48.509Z,101216.40
2018-08-06T16:08:15.460Z,101207.53
2018-08-06T16:10:42.377Z,101206.42
2018-08-06T16:13:09.316Z,101199.24
2018-08-06T16:15:36.314Z,101202.77
2018-08-06T16:18:03.284Z,101202.91
2018-08-06T16:20:30.224Z,101193.91
2018-08-06T16:22:57.141Z,101199.89
2018-08-06T16:25:24.058Z,101200.89
2018-08-06T16:27:50.991Z,101203.23
2018-08-06T16:30:21.756Z,101203.55
2018-08-06T16:32:49.058Z,101190.58
2018-08-06T16:35:17.820Z,101195.12
2018-08-06T16:37:44.988Z,101188.17
2018-08-06T16:40:12.541Z,101186.64
2018-08-06T16:42:39.520Z,101188.25
2018-08-06T16:45:07.284Z,101188.44
2018-08-06T16:47:34.637Z,101189.14
2018-08-06T16:50:01.597Z,101180.09
2018-08-06T16:52:28.543Z,101184.61
2018-08-06T16:54:55.425Z,101176.48
2018-08-06T16:57:22.337Z,101181.73
2018-08-06T16:59:49.233Z,101177.98
2018-08-06T17:02:16.212Z,101176.70
2018-08-06T17:04:43.117Z,101170.20
2018-08-06T17:07:10.015Z,101174.95
2018-08-06T17:09:36.937Z,101172.69
2018-08-06T17:12:03.953Z,101176.11
2018-08-06T17:14:30.911Z,101170.38
2018-08-06T17:16:57.855Z,101172.52
2018-08-06T17:19:24.778Z,101177.44
2018-08-06T17:21:51.706Z,101174.66
2018-08-06T17:24:18.635Z,101172.14
2018-08-06T17:26:45.528Z,101173.64
2018-08-06T17:29:12.438Z,101174.86
2018-08-06T17:31:39.357Z,101171.45
2018-08-06T17:34:06.322Z,101174.20
2018-08-06T17:36:33.298Z,101169.69
2018-08-06T17:39:00.146Z,101169.00
2018-08-06T17:41:27.084Z,101168.72
2018-08-06T17:43:54.027Z,101169.77
2018-08-06T17:46:20.956Z,101168.26
2018-08-06T17:48:47.876Z,101162.02
2018-08-06T17:51:14.807Z,101160.81
2018-08-06T17:53:41.720Z,101163.47
2018-08-06T17:56:08.615Z,101161.61
2018-08-06T17:58:35.525Z,101159.89
2018-08-06T18:01:02.452Z,101160.44
2018-08-06T18:03:29.372Z,101159.30
2018-08-06T18:05:56.292Z,101159.41
2018-08-06T18:08:23.216Z,101155.61
2018-08-06T18:10:50.136Z,101148.05
2018-08-06T18:13:17.080Z,101154.81
2018-08-06T18:15:43.996Z,101154.28
2018-08-06T18:18:10.920Z,101152.53
2018-08-06T18:20:37.824Z,101156.39
2018-08-06T18:23:04.833Z,101151.23
2018-08-06T18:25:31.768Z,101154.22
2018-08-06T18:27:58.737Z,101149.92
2018-08-06T18:30:25.656Z,101150.66
2018-08-06T18:32:52.604Z,101154.52
2018-08-06T18:35:19.848Z,101161.94
2018-08-06T18:37:46.852Z,101153.42
2018-08-06T18:40:14.693Z,101160.86
2018-08-06T18:42:41.616Z,101157.31
2018-08-06T18:45:12.882Z,101162.48
2018-08-06T18:47:40.341Z,101155.05
2018-08-06T18:50:08.011Z,101157.05
2018-08-06T18:52:34.925Z,101161.14
2018-08-06T18:55:01.873Z,101163.38
2018-08-06T18:57:28.788Z,101157.72
2018-08-06T18:59:55.784Z,101164.88
2018-08-06T19:02:22.707Z,101169.83
2018-08-06T19:04:49.657Z,101168.11
2018-08-06T19:07:16.593Z,101169.73
2018-08-06T19:09:43.520Z,101163.84
2018-08-06T19:12:16.236Z,101160.17
2018-08-06T19:14:43.147Z,101159.06
2018-08-06T19:17:10.053Z,101165.09
2018-08-06T19:19:36.939Z,101166.54
2018-08-06T19:22:03.897Z,101167.24
2018-08-06T19:24:36.742Z,101166.73
2018-08-06T19:27:03.638Z,101166.35
2018-08-06T19:29:30.554Z,101169.14
2018-08-06T19:31:57.476Z,101164.33
2018-08-06T19:34:24.397Z,101170.64
2018-08-06T19:36:57.267Z,101169.11
2018-08-06T19:39:24.244Z,101174.10
2018-08-06T19:41:51.373Z,101174.93
2018-08-06T19:44:18.264Z,101175.14
2018-08-06T19:46:45.144Z,101171.80
2018-08-06T19:49:17.897Z,101171.78
2018-08-06T19:51:44.808Z,101171.17
2018-08-06T19:54:11.899Z,101165.47
2018-08-06T19:56:38.765Z,101167.27
2018-08-06T19:59:12.848Z,101169.07
2018-08-06T20:01:39.798Z,101172.27
2018-08-06T20:04:07.324Z,101171.45
2018-08-06T20:06:34.244Z,101176.31
2018-08-06T20:09:01.168Z,101173.22
2018-08-06T20:11:28.075Z,101169.65
2018-08-06T20:13:55.064Z,101160.33
2018-08-06T20:16:21.965Z,101160.11
2018-08-06T20:18:48.913Z,101159.16
2018-08-06T20:21:16.177Z,101158.98
2018-08-06T20:23:43.117Z,101159.71
2018-08-06T20:26:10.084Z,101157.45
2018-08-06T20:28:37.017Z,101161.24
2018-08-06T20:31:03.973Z,101163.28
2018-08-06T20:33:30.995Z,101160.26
2018-08-06T20:35:57.952Z,101158.53
2018-08-06T20:38:24.868Z,101159.41
2018-08-06T20:40:51.804Z,101158.75
2018-08-06T20:43:18.755Z,101160.31
2018-08-06T20:45:45.704Z,101163.22
2018-08-06T20:48:12.657Z,101169.47
2018-08-06T20:50:39.600Z,101159.72
2018-08-06T20:53:06.541Z,101161.38
2018-08-06T20:55:33.525Z,101164.05
2018-08-06T20:58:00.491Z,101158.76
2018-08-06T21:00:27.445Z,101160.73
2018-08-06T21:02:54.390Z,101158.84
2018-08-06T21:05:22.202Z,101161.36
2018-08-06T21:07:49.240Z,101156.34
2018-08-06T21:10:16.872Z,101157.33
2018-08-06T21:12:44.050Z,101152.41
2018-08-06T21:15:12.162Z,101151.48
2018-08-06T21:17:39.297Z,101154.88
2018-08-06T21:20:08.258Z,101153.94
2018-08-06T21:22:35.193Z,101155.29
2018-08-06T21:25:02.140Z,101150.74
2018-08-06T21:27:29.055Z,101155.59
2018-08-06T21:29:55.956Z,101156.56
2018-08-06T21:32:22.964Z,101158.08
2018-08-06T21:34:49.962Z,101161.20
2018-08-06T21:37:16.913Z,101147.20
2018-08-06T21:39:43.845Z,101147.09
2018-08-06T21:42:10.824Z,101143.55
2018-08-06T21:44:37.759Z,101151.98
2018-08-06T21:47:04.693Z,101147.48
2018-08-06T21:49:31.601Z,101150.76
2018-08-06T21:51:58.556Z,101150.67
2018-08-06T21:54:25.524Z,101149.31
2018-08-06T21:56:52.435Z,101148.95
2018-08-06T21:59:19.339Z,101147.80
2018-08-06T22:01:46.316Z,101146.37
2018-08-06T22:04:13.238Z,101147.78
2018-08-06T22:06:40.380Z,101147.41
2018-08-06T22:09:09.671Z,101145.38
2018-08-06T22:11:36.615Z,101151.23
2018-08-06T22:14:03.875Z,101149.30
2018-08-06T22:16:30.849Z,101153.42
2018-08-06T22:18:57.815Z,101154.49
2018-08-06T22:21:25.233Z,101154.27
2018-08-06T22:23:52.229Z,101151.17
2018-08-06T22:26:19.157Z,101149.92
2018-08-06T22:28:47.931Z,101150.72
2018-08-06T22:31:14.868Z,101151.41
2018-08-06T22:33:41.841Z,101156.88
2018-08-06T22:36:08.756Z,101151.08
2018-08-06T22:38:35.716Z,101151.73
2018-08-06T22:41:02.674Z,101156.30
2018-08-06T22:43:29.620Z,101152.52
2018-08-06T22:45:56.561Z,101145.53
2018-08-06T22:48:23.511Z,101150.81
2018-08-06T22:50:50.439Z,101148.22
2018-08-06T22:53:17.413Z,101152.17
2018-08-06T22:55:56.095Z,101160.10
2018-08-06T22:58:23.032Z,101149.37
2018-08-06T23:00:49.960Z,101155.70
2018-08-06T23:03:16.904Z,101155.14
2018-08-06T23:05:43.847Z,101155.17
2018-08-06T23:08:10.890Z,101154.83
2018-08-06T23:10:37.817Z,101159.44
2018-08-06T23:13:04.781Z,101161.33
2018-08-06T23:15:31.709Z,101159.88
2018-08-06T23:17:58.667Z,101156.31
2018-08-06T23:20:25.664Z,101156.34
2018-08-06T23:22:52.568Z,101149.78
2018-08-06T23:25:22.027Z,101149.61
2018-08-06T23:27:48.932Z,101147.83
2018-08-06T23:30:15.848Z,101141.47
2018-08-06T23:32:42.844Z,101142.53
2018-08-06T23:35:11.277Z,101134.28
2018-08-06T23:37:39.148Z,101126.58
2018-08-06T23:40:06.889Z,101129.88
2018-08-06T23:42:33.992Z,101128.92
2018-08-06T23:45:00.916Z,101122.81
2018-08-06T23:47:27.856Z,101120.17
2018-08-06T23:49:54.817Z,101121.51
2018-08-06T23:52:21.716Z,101115.82
2018-08-06T23:54:48.625Z,101116.50
2018-08-06T23:57:15.534Z,101110.22
2018-08-06T23:59:42.460Z,101114.33
